Time;durP1;ratioP1;P1;durP2;ratioP2;P2;SDS_P1;SDS_P2;PMS_P1;PMS_P2;Temp;Humidity;BMP_temperature;BMP_pressure;BME280_temperature;BME280_humidity;BME280_pressure;Samples;Min_cycle;Max_cycle;Signal;HPM_P1;HPM_P2
2021/10/08 00:00:09;;;;;;;6.95;4.53;;;11.40;96.00;;;;;;4992159;28;20053;-72
2021/10/08 00:02:34;;;;;;;6.80;4.45;;;11.30;96.00;;;;;;4992107;28;20097;-73
2021/10/08 00:05:00;;;;;;;7.18;4.47;;;11.40;96.00;;;;;;4992534;28;20038;-70
2021/10/08 00:07:25;;;;;;;8.55;4.60;;;11.50;96.00;;;;;;4992087;28;20100;-71
2021/10/08 00:09:51;;;;;;;8.15;4.68;;;11.40;95.90;;;;;;4991557;28;20034;-71
2021/10/08 00:12:17;;;;;;;8.95;5.00;;;11.40;95.90;;;;;;4991861;28;20046;-72
2021/10/08 00:14:42;;;;;;;9.38;4.88;;;11.30;95.80;;;;;;4992167;28;20066;-72
2021/10/08 00:17:10;;;;;;;6.55;4.47;;;11.20;95.70;;;;;;4992416;28;20071;-71
2021/10/08 00:19:37;;;;;;;7.95;4.75;;;11.20;95.80;;;;;;4992042;28;20054;-71
2021/10/08 00:22:02;;;;;;;9.90;4.50;;;11.20;96.00;;;;;;4992445;28;20042;-71
2021/10/08 00:24:28;;;;;;;6.88;4.38;;;11.20;96.00;;;;;;4992232;28;20089;-71
2021/10/08 00:26:53;;;;;;;12.35;5.00;;;11.30;96.00;;;;;;4992017;28;20472;-72
2021/10/08 00:29:19;;;;;;;5.72;4.03;;;11.20;96.00;;;;;;4992107;28;20035;-71
2021/10/08 00:31:45;;;;;;;6.57;4.20;;;11.10;96.00;;;;;;4990727;28;20208;-71
2021/10/08 00:34:10;;;;;;;13.63;4.53;;;11.20;96.00;;;;;;4991911;28;20443;-71
2021/10/08 00:36:36;;;;;;;10.07;4.80;;;11.20;96.00;;;;;;4992294;28;20109;-72
2021/10/08 00:39:03;;;;;;;9.20;4.82;;;11.30;96.00;;;;;;4991927;28;20085;-71
2021/10/08 00:41:28;;;;;;;8.60;4.88;;;11.20;95.90;;;;;;4991442;28;20035;-71
2021/10/08 00:43:54;;;;;;;5.75;3.90;;;11.30;95.90;;;;;;4991756;28;20033;-71
2021/10/08 00:46:20;;;;;;;8.75;4.38;;;11.20;95.80;;;;;;4991533;28;20030;-71
2021/10/08 00:48:51;;;;;;;15.13;4.85;;;11.20;96.00;;;;;;4992133;28;20030;-71
2021/10/08 00:51:17;;;;;;;15.43;4.75;;;11.20;96.00;;;;;;4990546;28;20484;-72
2021/10/08 00:53:43;;;;;;;7.78;4.00;;;11.10;96.00;;;;;;4991739;28;20039;-70
2021/10/08 00:56:08;;;;;;;9.00;4.85;;;11.10;96.10;;;;;;4991724;28;20487;-72
2021/10/08 00:58:34;;;;;;;8.00;4.72;;;11.10;96.10;;;;;;4991613;28;20037;-75
2021/10/08 01:01:00;;;;;;;9.77;5.07;;;11.20;96.20;;;;;;4991901;28;20401;-71
2021/10/08 01:03:26;;;;;;;8.82;4.63;;;11.10;96.10;;;;;;4991256;28;20361;-72
2021/10/08 01:05:52;;;;;;;9.82;4.70;;;11.10;96.10;;;;;;4991703;28;20484;-70
2021/10/08 01:08:18;;;;;;;7.00;4.20;;;11.10;96.10;;;;;;4991461;28;20031;-73
2021/10/08 01:10:45;;;;;;;10.02;4.43;;;11.10;96.10;;;;;;4990093;28;20022;-72
2021/10/08 01:13:12;;;;;;;8.73;4.82;;;11.00;96.10;;;;;;4991752;28;20053;-72
2021/10/08 01:15:37;;;;;;;8.95;4.35;;;10.90;96.20;;;;;;4990685;28;20124;-71
2021/10/08 01:18:04;;;;;;;7.10;4.22;;;10.90;96.10;;;;;;4991585;28;20389;-73
2021/10/08 01:20:30;;;;;;;10.23;4.90;;;10.80;96.10;;;;;;4991457;28;20113;-71
2021/10/08 01:22:59;;;;;;;8.38;5.32;;;10.90;96.10;;;;;;4991321;28;20085;-73
2021/10/08 01:25:30;;;;;;;8.15;4.53;;;10.80;96.10;;;;;;4991524;28;20035;-71
2021/10/08 01:27:56;;;;;;;11.82;4.40;;;10.80;96.00;;;;;;4994159;28;20041;-72
2021/10/08 01:30:24;;;;;;;10.27;4.25;;;10.80;96.10;;;;;;4995059;28;20041;-72
2021/10/08 01:32:51;;;;;;;9.90;4.93;;;10.70;96.10;;;;;;4995313;28;20031;-72
2021/10/08 01:35:17;;;;;;;8.30;3.92;;;10.70;95.90;;;;;;4991497;28;20049;-71
2021/10/08 01:37:43;;;;;;;6.30;4.13;;;10.60;95.90;;;;;;4975619;28;20027;-72
2021/10/08 01:40:10;;;;;;;5.93;3.70;;;10.60;96.10;;;;;;4975668;28;20042;-71
2021/10/08 01:42:36;;;;;;;8.73;4.43;;;10.60;96.00;;;;;;4975658;28;20031;-72
2021/10/08 01:45:03;;;;;;;8.07;4.38;;;10.50;95.90;;;;;;4975360;28;20031;-72
2021/10/08 01:47:28;;;;;;;9.55;4.25;;;10.50;96.00;;;;;;4975423;28;20414;-72
2021/10/08 01:49:54;;;;;;;6.13;4.25;;;10.50;95.90;;;;;;4975494;28;20061;-71
2021/10/08 01:52:20;;;;;;;8.82;4.35;;;10.50;95.90;;;;;;4975416;28;20405;-72
2021/10/08 01:54:46;;;;;;;6.40;3.97;;;10.40;96.00;;;;;;4975605;28;20405;-72
2021/10/08 01:57:12;;;;;;;7.90;3.88;;;10.40;96.00;;;;;;4974182;28;20488;-71
2021/10/08 01:59:37;;;;;;;8.82;4.28;;;10.40;96.00;;;;;;4974934;28;20030;-72
2021/10/08 02:02:04;;;;;;;5.82;4.10;;;10.40;96.00;;;;;;4975184;28;20102;-71
2021/10/08 02:04:29;;;;;;;5.82;3.80;;;10.40;96.00;;;;;;4974987;28;20035;-72
2021/10/08 02:06:55;;;;;;;7.05;4.28;;;10.40;95.90;;;;;;4975377;28;20416;-71
2021/10/08 02:09:21;;;;;;;8.75;3.55;;;10.40;95.90;;;;;;4974955;28;20069;-72
2021/10/08 02:11:46;;;;;;;7.00;4.18;;;10.40;95.90;;;;;;4974609;28;20051;-71
2021/10/08 02:14:12;;;;;;;8.75;3.95;;;10.40;95.80;;;;;;4974829;28;20057;-71
2021/10/08 02:16:37;;;;;;;9.45;4.03;;;10.30;95.70;;;;;;4974753;28;20480;-72
2021/10/08 02:19:04;;;;;;;9.50;4.25;;;10.30;95.80;;;;;;4975751;28;20461;-72
2021/10/08 02:21:30;;;;;;;7.65;4.00;;;10.20;95.70;;;;;;4974470;28;20511;-72
2021/10/08 02:23:56;;;;;;;6.80;3.80;;;10.30;95.70;;;;;;4974891;28;20067;-72
2021/10/08 02:26:22;;;;;;;7.93;3.47;;;10.30;95.70;;;;;;4973617;28;20062;-71
2021/10/08 02:28:47;;;;;;;9.60;4.78;;;10.30;95.70;;;;;;4974051;28;20043;-72
2021/10/08 02:31:13;;;;;;;8.18;4.20;;;10.20;95.70;;;;;;4974474;28;20027;-71
2021/10/08 02:33:39;;;;;;;6.30;4.20;;;10.10;95.80;;;;;;4974610;28;20268;-71
2021/10/08 02:36:06;;;;;;;6.18;3.97;;;10.20;95.70;;;;;;4974605;28;20030;-71
2021/10/08 02:38:32;;;;;;;5.93;3.25;;;10.10;95.70;;;;;;4973393;28;20039;-72
2021/10/08 02:40:58;;;;;;;10.57;4.50;;;10.10;95.70;;;;;;4973221;28;20065;-70
2021/10/08 02:43:23;;;;;;;6.28;3.78;;;10.20;95.60;;;;;;4974447;28;20023;-71
2021/10/08 02:45:49;;;;;;;8.23;4.00;;;10.20;95.60;;;;;;4973556;28;20113;-70
2021/10/08 02:48:15;;;;;;;7.30;4.03;;;10.20;95.50;;;;;;4974184;28;20031;-71
2021/10/08 02:50:41;;;;;;;5.70;3.90;;;10.20;95.50;;;;;;4974357;28;20034;-71
2021/10/08 02:53:06;;;;;;;11.88;4.28;;;10.10;95.40;;;;;;4974147;28;20058;-72
2021/10/08 02:55:32;;;;;;;5.32;3.63;;;10.00;95.60;;;;;;4974053;28;20380;-72
2021/10/08 02:57:58;;;;;;;7.25;3.75;;;10.00;95.60;;;;;;4974576;28;20458;-72
2021/10/08 03:00:23;;;;;;;6.70;3.72;;;10.00;95.60;;;;;;4974132;28;20059;-72
2021/10/08 03:02:49;;;;;;;8.32;3.88;;;9.90;96.10;;;;;;4974023;28;20126;-72
2021/10/08 03:05:15;;;;;;;7.30;3.63;;;10.00;95.70;;;;;;4974129;28;20038;-72
2021/10/08 03:07:40;;;;;;;5.03;3.47;;;9.90;96.10;;;;;;4973880;28;20046;-72
2021/10/08 03:10:09;;;;;;;8.02;4.20;;;9.80;96.10;;;;;;4974260;28;20053;-72
2021/10/08 03:12:35;;;;;;;6.13;3.95;;;9.80;96.00;;;;;;4973895;28;20124;-72
2021/10/08 03:15:01;;;;;;;7.32;4.10;;;9.80;96.10;;;;;;4973836;28;20035;-72
2021/10/08 03:17:26;;;;;;;8.95;4.10;;;9.70;96.20;;;;;;4973794;28;20181;-72
2021/10/08 03:19:52;;;;;;;7.63;3.65;;;9.70;96.60;;;;;;4973803;28;20109;-72
2021/10/08 03:22:18;;;;;;;5.97;3.55;;;9.80;96.30;;;;;;4972461;28;20027;-72
2021/10/08 03:24:44;;;;;;;7.07;3.67;;;9.80;96.20;;;;;;4973928;28;20162;-72
2021/10/08 03:27:10;;;;;;;6.47;3.72;;;9.90;96.20;;;;;;4973584;28;20042;-72
2021/10/08 03:29:35;;;;;;;8.07;4.18;;;10.00;95.50;;;;;;4973672;28;20045;-72
2021/10/08 03:32:01;;;;;;;7.53;3.88;;;10.10;95.60;;;;;;4973520;28;20086;-72
2021/10/08 03:34:27;;;;;;;7.85;3.85;;;10.00;95.40;;;;;;4972444;28;20472;-72
2021/10/08 03:36:55;;;;;;;9.10;3.65;;;10.00;95.50;;;;;;4974022;28;20019;-72
2021/10/08 03:39:23;;;;;;;;;;;10.00;95.40;;;;;;4973998;28;20027;-72
2021/10/08 03:41:50;;;;;;;8.35;3.58;;;9.90;96.00;;;;;;4972141;28;20504;-71
2021/10/08 03:44:16;;;;;;;7.38;3.78;;;9.80;96.00;;;;;;4973509;28;20041;-72
2021/10/08 03:46:51;;;;;;;9.68;3.92;;;9.80;96.10;;;;;;4973268;28;20027;-72
2021/10/08 03:49:18;;;;;;;5.55;3.88;;;9.80;96.10;;;;;;4972967;28;20440;-72
2021/10/08 03:51:46;;;;;;;8.82;3.85;;;9.70;96.10;;;;;;4973507;28;20019;-72
2021/10/08 03:54:12;;;;;;;;;;;9.80;96.10;;;;;;4973631;28;20114;-73
2021/10/08 03:56:38;;;;;;;5.80;3.70;;;9.80;96.00;;;;;;4973271;28;19948;-72
2021/10/08 03:59:04;;;;;;;5.55;3.80;;;9.70;96.00;;;;;;4973028;28;20035;-72
2021/10/08 04:01:29;;;;;;;5.55;4.03;;;9.70;96.10;;;;;;4973278;28;20051;-72
2021/10/08 04:03:55;;;;;;;9.68;3.70;;;9.70;96.00;;;;;;4973285;28;20062;-73
2021/10/08 04:06:21;;;;;;;7.15;4.00;;;9.70;96.10;;;;;;4973075;28;20035;-72
2021/10/08 04:08:47;;;;;;;6.95;3.65;;;9.80;96.10;;;;;;4972566;28;20039;-72
2021/10/08 04:11:13;;;;;;;10.07;3.83;;;9.90;95.90;;;;;;4972651;28;20470;-72
2021/10/08 04:13:38;;;;;;;8.48;4.20;;;9.90;95.90;;;;;;4972703;28;20045;-72
2021/10/08 04:16:04;;;;;;;7.80;4.00;;;9.80;95.80;;;;;;4972949;28;20023;-72
2021/10/08 04:18:30;;;;;;;8.98;3.85;;;9.80;95.90;;;;;;4972714;28;20462;-72
2021/10/08 04:20:55;;;;;;;9.27;4.55;;;9.70;96.10;;;;;;4972725;28;20030;-73
2021/10/08 04:23:22;;;;;;;5.93;3.72;;;9.80;95.90;;;;;;4972741;28;20050;-73
2021/10/08 04:25:48;;;;;;;11.50;3.95;;;9.80;95.90;;;;;;4972638;28;20043;-72
2021/10/08 04:28:14;;;;;;;8.02;4.40;;;9.70;96.00;;;;;;4972619;28;20038;-72
2021/10/08 04:30:39;;;;;;;5.03;3.53;;;9.70;96.00;;;;;;4973053;28;20036;-72
2021/10/08 04:33:16;;;;;;;8.15;4.28;;;9.70;96.10;;;;;;4972564;28;20043;-72
2021/10/08 04:35:42;;;;;;;6.30;3.92;;;9.70;96.20;;;;;;4972259;28;20038;-72
2021/10/08 04:38:08;;;;;;;14.18;5.38;;;9.70;96.40;;;;;;4972442;28;20039;-72
2021/10/08 04:40:34;;;;;;;14.43;5.80;;;9.80;96.70;;;;;;4972743;28;20031;-73
2021/10/08 04:42:59;;;;;;;11.32;5.93;;;9.70;96.80;;;;;;4972665;28;20050;-73
2021/10/08 04:45:25;;;;;;;8.77;4.93;;;9.70;97.00;;;;;;4972663;28;20026;-72
2021/10/08 04:47:50;;;;;;;9.88;5.00;;;9.70;96.90;;;;;;4972285;28;20310;-73
2021/10/08 04:50:17;;;;;;;8.50;5.30;;;9.70;96.80;;;;;;4972329;28;20369;-72
2021/10/08 04:52:43;;;;;;;8.50;4.88;;;9.70;97.10;;;;;;4972373;28;20023;-72
2021/10/08 04:55:08;;;;;;;7.68;4.72;;;9.70;96.80;;;;;;4972266;28;20033;-71
2021/10/08 04:57:34;;;;;;;7.68;4.60;;;9.60;96.60;;;;;;4972619;28;20497;-72
2021/10/08 05:00:00;;;;;;;8.70;5.35;;;9.60;96.50;;;;;;4972012;28;20038;-72
2021/10/08 05:02:25;;;;;;;12.00;5.25;;;9.50;96.50;;;;;;4973663;28;20543;-72
2021/10/08 05:04:51;;;;;;;10.13;4.93;;;9.60;96.60;;;;;;4976360;28;20035;-72
2021/10/08 05:07:17;;;;;;;9.15;4.45;;;9.60;96.60;;;;;;4975964;28;20043;-72
2021/10/08 05:09:42;;;;;;;10.80;5.30;;;9.60;96.40;;;;;;4975711;28;20027;-72
2021/10/08 05:12:08;;;;;;;16.42;7.43;;;9.70;96.40;;;;;;4975670;28;20054;-72
2021/10/08 05:14:34;;;;;;;11.57;5.13;;;9.80;96.20;;;;;;4976032;28;20035;-72
2021/10/08 05:16:59;;;;;;;8.98;5.00;;;9.80;96.00;;;;;;4975718;28;20038;-72
2021/10/08 05:19:25;;;;;;;11.55;5.50;;;9.90;96.00;;;;;;4974736;28;20027;-72
2021/10/08 05:21:54;;;;;;;9.27;4.90;;;9.80;95.90;;;;;;4974660;28;20457;-72
2021/10/08 05:24:19;;;;;;;7.93;4.57;;;9.70;96.00;;;;;;4975369;28;20031;-72
2021/10/08 05:26:45;;;;;;;7.40;4.25;;;9.70;96.00;;;;;;4975365;28;20034;-72
2021/10/08 05:29:10;;;;;;;7.18;4.85;;;9.60;95.90;;;;;;4975555;28;20031;-73
2021/10/08 05:31:36;;;;;;;9.57;4.65;;;9.50;96.00;;;;;;4975243;28;20050;-73
2021/10/08 05:34:01;;;;;;;9.43;5.25;;;9.50;96.00;;;;;;4975820;28;20477;-73
2021/10/08 05:36:27;;;;;;;11.40;5.18;;;9.50;96.10;;;;;;4974917;28;20125;-75
2021/10/08 05:38:53;;;;;;;11.65;5.20;;;9.60;96.10;;;;;;4975133;28;20038;-72
2021/10/08 05:41:19;;;;;;;7.45;4.43;;;9.60;96.00;;;;;;4974510;28;20031;-71
2021/10/08 05:43:45;;;;;;;5.85;3.97;;;9.60;95.90;;;;;;4974759;28;20027;-73
2021/10/08 05:46:10;;;;;;;11.40;5.30;;;9.70;95.80;;;;;;4973717;28;20022;-70
2021/10/08 05:48:36;;;;;;;8.82;4.88;;;9.70;95.80;;;;;;4977121;28;20082;-73
2021/10/08 05:51:02;;;;;;;10.73;5.22;;;9.60;96.00;;;;;;4994492;28;20047;-73
2021/10/08 05:53:27;;;;;;;8.25;4.70;;;9.60;95.90;;;;;;4993157;28;20022;-71
2021/10/08 05:55:53;;;;;;;11.90;4.20;;;9.70;96.00;;;;;;4994177;28;20452;-72
2021/10/08 05:58:19;;;;;;;9.25;4.75;;;9.70;96.00;;;;;;4993799;28;20389;-73
2021/10/08 06:00:44;;;;;;;9.85;5.18;;;9.60;95.70;;;;;;4994434;28;20034;-71
2021/10/08 06:03:10;;;;;;;8.88;4.78;;;9.60;95.90;;;;;;4992693;28;20034;-74
2021/10/08 06:05:37;;;;;;;8.40;4.95;;;9.70;95.80;;;;;;4994039;28;20050;-71
2021/10/08 06:08:07;;;;;;;16.00;5.47;;;9.60;95.70;;;;;;4993955;28;20054;-72
2021/10/08 06:10:32;;;;;;;8.73;4.32;;;9.70;95.80;;;;;;4993889;28;20493;-72
2021/10/08 06:12:58;;;;;;;9.73;4.78;;;9.80;95.60;;;;;;4994320;28;20035;-71
2021/10/08 06:15:24;;;;;;;8.70;4.90;;;9.80;95.60;;;;;;4994375;28;20311;-71
2021/10/08 06:17:50;;;;;;;15.68;5.18;;;9.50;95.60;;;;;;4994162;28;20092;-72
2021/10/08 06:20:15;;;;;;;12.20;5.38;;;9.60;96.00;;;;;;4994345;28;20475;-73
2021/10/08 06:22:45;;;;;;;11.57;5.13;;;9.60;96.10;;;;;;4994301;28;20117;-73
2021/10/08 06:25:10;;;;;;;15.25;6.28;;;9.60;96.30;;;;;;4994220;28;20057;-73
2021/10/08 06:27:36;;;;;;;9.55;5.28;;;9.70;96.20;;;;;;4994409;28;20065;-72
2021/10/08 06:30:02;;;;;;;9.23;4.80;;;9.80;96.10;;;;;;4993648;28;20034;-73
2021/10/08 06:32:28;;;;;;;9.25;4.97;;;9.80;96.10;;;;;;4992526;28;20026;-70
2021/10/08 06:34:54;;;;;;;13.10;5.50;;;9.70;95.90;;;;;;4993910;28;20044;-72
2021/10/08 06:37:19;;;;;;;10.63;5.82;;;9.70;96.20;;;;;;4993565;28;20165;-71
2021/10/08 06:39:45;;;;;;;13.35;6.15;;;9.50;96.50;;;;;;4993702;28;20121;-71
2021/10/08 06:42:10;;;;;;;14.18;5.82;;;9.50;97.20;;;;;;4993377;28;20170;-73
2021/10/08 06:44:36;;;;;;;13.23;5.60;;;9.50;97.30;;;;;;4993169;28;20045;-72
2021/10/08 06:47:02;;;;;;;8.10;5.32;;;9.50;97.70;;;;;;4993430;28;20041;-74
2021/10/08 06:49:27;;;;;;;9.73;5.72;;;9.60;97.60;;;;;;4993592;28;20121;-74
2021/10/08 06:51:53;;;;;;;13.73;6.40;;;9.70;97.80;;;;;;4993610;28;20405;-75
2021/10/08 06:54:19;;;;;;;12.43;5.78;;;9.70;97.80;;;;;;4993180;28;20117;-70
2021/10/08 06:56:44;;;;;;;13.38;6.95;;;9.80;97.80;;;;;;4992752;28;20030;-71
2021/10/08 06:59:10;;;;;;;12.55;6.07;;;9.80;97.80;;;;;;4991716;28;20400;-70
2021/10/08 07:01:35;;;;;;;11.82;5.90;;;9.90;97.70;;;;;;4992717;28;20038;-70
2021/10/08 07:04:01;;;;;;;13.30;6.30;;;9.90;97.70;;;;;;4993138;28;20042;-70
2021/10/08 07:06:29;;;;;;;15.27;6.55;;;10.00;97.30;;;;;;4992642;28;20081;-70
2021/10/08 07:08:55;;;;;;;13.57;6.55;;;10.10;97.40;;;;;;4992853;28;20030;-71
2021/10/08 07:11:21;;;;;;;9.77;6.05;;;10.00;97.40;;;;;;4991229;28;20094;-72
2021/10/08 07:13:46;;;;;;;14.85;6.60;;;10.10;97.40;;;;;;4993199;28;20049;-74
2021/10/08 07:16:12;;;;;;;15.63;6.82;;;10.30;97.40;;;;;;4992711;28;20500;-74
2021/10/08 07:18:38;;;;;;;13.40;6.55;;;10.20;97.30;;;;;;4993604;28;20113;-72
2021/10/08 07:21:06;;;;;;;17.15;6.78;;;10.20;97.40;;;;;;4991855;28;20038;-74
2021/10/08 07:23:34;;;;;;;12.10;7.03;;;10.30;97.50;;;;;;4992841;28;20479;-72
2021/10/08 07:26:00;;;;;;;20.15;8.00;;;10.50;97.30;;;;;;4992010;28;20395;-74
2021/10/08 07:28:25;;;;;;;25.90;7.47;;;10.60;97.10;;;;;;4992606;28;20041;-74
2021/10/08 07:30:51;;;;;;;13.18;7.10;;;10.60;97.00;;;;;;4993003;28;20049;-75
2021/10/08 07:33:17;;;;;;;23.25;11.07;;;10.70;97.20;;;;;;4991203;28;20049;-73
2021/10/08 07:35:42;;;;;;;14.80;7.78;;;10.60;97.50;;;;;;4992581;28;20596;-72
2021/10/08 07:38:08;;;;;;;13.35;7.50;;;10.70;97.70;;;;;;4992548;28;20034;-72
2021/10/08 07:40:33;;;;;;;15.30;8.20;;;10.70;97.80;;;;;;4991263;28;20310;-74
2021/10/08 07:42:59;;;;;;;22.13;8.32;;;10.80;97.80;;;;;;4991533;28;20037;-75
2021/10/08 07:45:25;;;;;;;14.75;7.78;;;10.80;97.90;;;;;;4992243;28;20564;-74
2021/10/08 07:47:50;;;;;;;18.35;8.35;;;10.90;98.10;;;;;;4992510;28;20046;-76
2021/10/08 07:50:16;;;;;;;15.35;7.30;;;11.00;97.80;;;;;;4992142;28;20031;-74
2021/10/08 07:52:43;;;;;;;19.20;8.82;;;11.20;97.70;;;;;;4992271;28;20026;-74
2021/10/08 07:55:11;;;;;;;14.45;8.30;;;11.30;97.60;;;;;;4992121;28;20101;-74
2021/10/08 07:57:38;;;;;;;23.95;7.95;;;11.40;97.50;;;;;;4992282;28;20065;-74
2021/10/08 08:00:06;;;;;;;19.88;8.75;;;11.50;97.50;;;;;;4992134;28;20436;-74
2021/10/08 08:02:32;;;;;;;16.23;7.43;;;11.60;97.60;;;;;;4991909;28;20121;-74
2021/10/08 08:04:58;;;;;;;15.27;8.32;;;11.70;97.50;;;;;;4991986;28;20154;-74
2021/10/08 08:07:24;;;;;;;18.17;7.90;;;11.80;97.60;;;;;;4991988;28;20437;-76
2021/10/08 08:09:50;;;;;;;19.02;7.38;;;12.00;97.80;;;;;;4992498;28;20037;-75
2021/10/08 08:12:16;;;;;;;15.82;7.95;;;11.90;97.70;;;;;;4991826;28;20492;-74
2021/10/08 08:14:42;;;;;;;37.15;19.08;;;12.00;97.70;;;;;;4991761;28;20035;-75
2021/10/08 08:17:07;;;;;;;18.75;9.55;;;12.10;97.60;;;;;;4991651;28;20041;-74
2021/10/08 08:19:33;;;;;;;11.32;7.47;;;12.10;97.50;;;;;;4991751;28;20030;-74
2021/10/08 08:21:59;;;;;;;14.95;7.78;;;12.20;97.50;;;;;;4992127;28;20459;-73
2021/10/08 08:24:25;;;;;;;20.60;7.70;;;12.20;97.50;;;;;;4990634;28;20027;-75
2021/10/08 08:26:51;;;;;;;18.98;8.32;;;12.30;97.50;;;;;;4991785;28;20027;-74
2021/10/08 08:29:17;;;;;;;19.08;7.80;;;12.40;97.50;;;;;;4991347;28;20038;-73
2021/10/08 08:31:43;;;;;;;18.85;9.18;;;12.50;97.50;;;;;;4991508;28;20138;-76
2021/10/08 08:34:08;;;;;;;15.60;7.82;;;12.50;97.50;;;;;;4991442;28;20473;-75
2021/10/08 08:36:34;;;;;;;16.88;8.27;;;12.60;97.50;;;;;;4991596;28;20045;-75
2021/10/08 08:39:04;;;;;;;14.63;8.18;;;12.90;97.90;;;;;;4991595;28;20117;-75
2021/10/08 08:41:30;;;;;;;14.93;7.63;;;13.40;97.90;;;;;;4991422;28;20061;-77
2021/10/08 08:43:56;;;;;;;19.10;7.63;;;14.00;98.00;;;;;;4991685;28;20042;-76
2021/10/08 08:46:22;;;;;;;17.35;7.32;;;14.80;97.60;;;;;;4991683;28;20038;-76
2021/10/08 08:48:48;;;;;;;17.13;7.53;;;15.70;96.40;;;;;;4991679;28;20023;-74
2021/10/08 08:51:14;;;;;;;12.02;6.88;;;16.40;96.10;;;;;;4991663;28;20357;-74
2021/10/08 08:53:40;;;;;;;16.45;6.63;;;17.20;94.60;;;;;;4991393;28;20080;-81
2021/10/08 08:56:05;;;;;;;10.95;6.05;;;17.90;93.10;;;;;;4991614;28;20050;-75
2021/10/08 08:58:31;;;;;;;14.02;7.35;;;18.50;92.20;;;;;;4991289;28;20034;-74
2021/10/08 09:00:59;;;;;;;12.52;6.13;;;18.90;91.80;;;;;;4991552;28;20061;-74
2021/10/08 09:03:25;;;;;;;23.08;7.15;;;18.90;90.70;;;;;;4991154;28;20027;-73
2021/10/08 09:05:51;;;;;;;13.68;5.95;;;19.30;90.60;;;;;;4990678;28;20035;-75
2021/10/08 09:08:16;;;;;;;9.90;5.60;;;19.70;90.20;;;;;;4991049;28;20081;-74
2021/10/08 09:10:46;;;;;;;16.23;6.30;;;20.00;88.90;;;;;;4990864;28;20027;-73
2021/10/08 09:13:16;;;;;;;34.10;8.88;;;20.30;88.90;;;;;;4991034;28;20061;-74
2021/10/08 09:15:59;;;;;;;31.10;7.50;;;20.50;87.10;;;;;;4991658;28;20460;-75
2021/10/08 09:18:27;;;;;;;27.08;7.88;;;21.00;86.90;;;;;;4991136;28;20038;-76
2021/10/08 09:21:13;;;;;;;32.97;7.60;;;21.70;83.50;;;;;;4991330;28;20042;-74
2021/10/08 09:23:49;;;;;;;21.77;6.60;;;22.10;82.30;;;;;;4991150;28;20034;-77
2021/10/08 09:26:20;;;;;;;17.05;6.28;;;23.20;79.90;;;;;;4990666;28;20464;-76
2021/10/08 09:29:01;;;;;;;14.57;6.00;;;23.70;78.10;;;;;;4991344;28;20039;-74
2021/10/08 09:31:37;;;;;;;16.08;6.20;;;24.50;77.10;;;;;;4990991;28;20548;-74
2021/10/08 09:34:30;;;;;;;11.85;6.20;;;24.80;74.90;;;;;;4991493;28;20062;-74
2021/10/08 09:37:02;;;;;;;7.60;4.90;;;25.60;73.60;;;;;;4969257;28;20667;-73
2021/10/08 09:39:31;;;;;;;6.90;5.35;;;25.90;72.70;;;;;;4990109;28;20038;-75
2021/10/08 09:42:12;;;;;;;16.67;6.45;;;26.10;71.50;;;;;;4990828;28;20121;-73
2021/10/08 09:44:50;;;;;;;22.30;6.68;;;26.80;69.30;;;;;;4991029;28;20103;-73
2021/10/08 09:47:18;;;;;;;9.20;5.65;;;27.00;69.10;;;;;;4991011;28;20350;-75
2021/10/08 09:49:47;;;;;;;13.20;8.98;;;27.20;67.10;;;;;;4994215;28;20038;-75
2021/10/08 09:52:28;;;;;;;9.48;6.40;;;27.10;66.30;;;;;;4993339;28;20030;-75
2021/10/08 09:54:55;;;;;;;11.18;6.03;;;27.00;66.60;;;;;;4994760;28;20417;-72
2021/10/08 09:57:21;;;;;;;10.57;6.23;;;27.10;66.80;;;;;;4994285;28;20042;-74
2021/10/08 09:59:49;;;;;;;14.57;7.15;;;26.40;67.40;;;;;;4994172;28;20040;-74
2021/10/08 10:02:15;;;;;;;11.88;6.28;;;26.00;68.60;;;;;;4992958;28;20038;-74
2021/10/08 10:05:00;;;;;;;10.10;6.72;;;26.50;68.30;;;;;;4994136;28;20046;-73
2021/10/08 10:07:26;;;;;;;11.27;6.30;;;26.50;68.30;;;;;;4993760;28;20026;-74
2021/10/08 10:09:52;;;;;;;9.43;7.10;;;25.60;68.90;;;;;;4993550;28;20022;-74
2021/10/08 10:12:19;;;;;;;12.52;7.53;;;25.20;69.60;;;;;;4993471;28;20073;-71
2021/10/08 10:14:47;;;;;;;12.77;9.80;;;24.80;70.80;;;;;;4994040;28;20042;-72
2021/10/08 10:17:16;;;;;;;16.70;9.15;;;24.70;71.50;;;;;;4993710;28;20037;-74
2021/10/08 10:19:45;;;;;;;17.88;10.13;;;24.40;71.70;;;;;;4993925;28;20034;-73
2021/10/08 10:22:16;;;;;;;22.25;13.60;;;24.00;72.90;;;;;;4993968;28;20029;-74
2021/10/08 10:24:43;;;;;;;16.30;10.52;;;23.70;73.30;;;;;;4994458;28;20018;-74
2021/10/08 10:27:10;;;;;;;21.27;13.25;;;23.40;75.10;;;;;;4993916;28;20022;-74
2021/10/08 10:29:37;;;;;;;17.83;11.35;;;23.40;75.10;;;;;;4992518;28;20073;-74
2021/10/08 10:32:06;;;;;;;21.30;11.17;;;23.60;75.70;;;;;;4993640;28;20038;-73
2021/10/08 10:34:34;;;;;;;19.98;12.50;;;23.60;75.00;;;;;;4992570;28;20038;-74
2021/10/08 10:36:59;;;;;;;;;;;23.20;75.40;;;;;;4994559;28;20038;-73
2021/10/08 10:39:25;;;;;;;21.13;12.40;;;22.80;76.80;;;;;;4992806;28;19921;-73
2021/10/08 10:42:02;;;;;;;19.98;11.25;;;23.00;77.30;;;;;;4993394;28;20034;-73
2021/10/08 10:44:41;;;;;;;20.20;12.13;;;23.20;77.50;;;;;;4993689;28;20022;-73
2021/10/08 10:47:36;;;;;;;18.27;10.75;;;23.80;77.40;;;;;;4993691;28;20155;-72
2021/10/08 10:50:27;;;;;;;20.17;12.02;;;24.20;75.20;;;;;;4993578;28;20429;-73
2021/10/08 10:52:59;;;;;;;23.45;12.48;;;24.50;75.10;;;;;;4993734;28;20109;-73
2021/10/08 10:55:25;;;;;;;18.48;12.57;;;24.80;74.60;;;;;;4993383;28;20354;-74
2021/10/08 10:57:59;;;;;;;20.73;12.63;;;24.80;74.60;;;;;;4993810;28;20061;-74
2021/10/08 11:00:37;;;;;;;19.38;12.15;;;25.00;74.30;;;;;;4992323;28;20030;-74
2021/10/08 11:03:05;;;;;;;;;;;25.00;73.90;;;;;;4992392;28;20429;-74
2021/10/08 11:05:32;;;;;;;22.20;13.75;;;25.40;73.10;;;;;;4993316;28;19996;-73
2021/10/08 11:08:04;;;;;;;21.90;14.02;;;25.70;72.40;;;;;;4991836;28;20038;-74
2021/10/08 11:10:29;;;;;;;27.13;14.48;;;26.00;71.90;;;;;;4992906;28;20034;-74
2021/10/08 11:13:23;;;;;;;27.05;15.77;;;26.00;70.80;;;;;;4993109;28;20061;-75
2021/10/08 11:16:15;;;;;;;25.50;14.82;;;25.60;71.20;;;;;;4991516;28;20062;-73
2021/10/08 11:18:49;;;;;;;26.75;16.42;;;25.40;71.60;;;;;;4992497;28;20100;-75
2021/10/08 11:21:27;;;;;;;23.30;15.95;;;25.20;72.30;;;;;;4991338;28;20568;-73
2021/10/08 11:23:58;;;;;;;24.95;15.73;;;25.20;73.30;;;;;;4992582;28;20037;-73
2021/10/08 11:26:24;;;;;;;25.42;14.88;;;25.20;72.20;;;;;;4992621;28;20121;-71
2021/10/08 11:28:50;;;;;;;22.38;14.93;;;25.40;72.80;;;;;;4989520;28;20389;-72
2021/10/08 11:31:18;;;;;;;21.83;15.05;;;25.20;71.70;;;;;;4991226;28;20039;-74
2021/10/08 11:33:48;;;;;;;26.92;14.43;;;25.50;71.20;;;;;;4993132;28;20105;-73
2021/10/08 11:36:36;;;;;;;22.23;15.38;;;25.40;70.90;;;;;;4992474;28;20030;-73
2021/10/08 11:39:12;;;;;;;26.65;13.90;;;25.20;71.00;;;;;;4992590;28;20391;-73
2021/10/08 11:41:38;;;;;;;22.38;14.00;;;24.90;71.70;;;;;;4992565;28;20145;-74
2021/10/08 11:44:17;;;;;;;22.73;14.55;;;24.70;71.90;;;;;;4992677;28;20113;-75
2021/10/08 11:47:27;;;;;;;29.20;18.25;;;24.40;71.80;;;;;;4991642;28;20450;-74
2021/10/08 11:50:00;;;;;;;29.05;15.63;;;23.90;72.60;;;;;;4992633;28;20121;-74
2021/10/08 11:52:36;;;;;;;22.67;14.35;;;23.30;74.20;;;;;;4992703;28;20114;-73
2021/10/08 11:55:15;;;;;;;22.65;14.43;;;22.80;75.50;;;;;;4992908;28;20040;-74
2021/10/08 11:57:51;;;;;;;22.95;15.27;;;22.50;76.30;;;;;;4992679;28;20039;-72
2021/10/08 12:00:18;;;;;;;24.58;14.25;;;22.30;77.00;;;;;;4992440;28;20049;-72
2021/10/08 12:03:03;;;;;;;26.50;14.82;;;22.00;77.50;;;;;;4992236;28;20037;-72
2021/10/08 12:06:00;;;;;;;24.58;14.13;;;21.80;78.50;;;;;;4991119;28;20361;-72
2021/10/08 12:08:32;;;;;;;23.13;13.88;;;21.60;79.10;;;;;;4992188;28;20034;-74
2021/10/08 12:11:08;;;;;;;21.75;14.85;;;21.50;79.30;;;;;;4991872;28;20504;-74
2021/10/08 12:13:34;;;;;;;23.35;13.10;;;21.50;79.50;;;;;;4990985;28;20372;-72
2021/10/08 12:16:00;;;;;;;18.02;13.05;;;21.60;79.50;;;;;;4992693;28;20022;-73
2021/10/08 12:18:25;;;;;;;22.80;13.13;;;21.50;79.10;;;;;;4992251;28;20036;-74
2021/10/08 12:21:10;;;;;;;19.50;13.30;;;21.60;79.40;;;;;;4992083;28;20476;-73
2021/10/08 12:23:36;;;;;;;22.60;14.02;;;21.50;79.70;;;;;;4992285;28;20046;-73
2021/10/08 12:26:02;;;;;;;25.60;14.05;;;21.40;80.30;;;;;;4992067;28;20376;-74
2021/10/08 12:28:27;;;;;;;19.80;13.02;;;21.10;80.50;;;;;;4991807;28;20036;-73
2021/10/08 12:30:59;;;;;;;18.90;13.38;;;21.00;81.10;;;;;;4993033;28;20131;-74
2021/10/08 12:33:29;;;;;;;20.35;13.45;;;20.80;81.80;;;;;;4991722;28;20023;-74
2021/10/08 12:36:14;;;;;;;27.02;15.75;;;20.80;82.40;;;;;;4992147;28;20045;-72
2021/10/08 12:39:03;;;;;;;27.10;13.43;;;20.60;81.40;;;;;;4992060;28;20033;-72
2021/10/08 12:41:36;;;;;;;21.08;13.00;;;20.70;82.00;;;;;;4992035;28;20034;-74
2021/10/08 12:44:03;;;;;;;18.52;12.15;;;20.70;81.10;;;;;;4991708;28;20176;-74
2021/10/08 12:46:34;;;;;;;19.63;11.88;;;20.80;79.90;;;;;;4992095;28;20111;-73